createdAt,value
2022-12-18T00:00:13.780Z,24.00
2022-12-18T00:02:42.195Z,21.13
2022-12-18T00:05:11.048Z,21.80
2022-12-18T00:07:39.691Z,22.77
2022-12-18T00:10:09.862Z,25.07
2022-12-18T00:12:38.321Z,22.43
2022-12-18T00:15:09.421Z,22.77
2022-12-18T00:17:37.702Z,33.10
2022-12-18T00:20:07.295Z,24.07
2022-12-18T00:22:35.680Z,22.00
2022-12-18T00:25:04.097Z,24.07
2022-12-18T00:27:32.407Z,29.30
2022-12-18T00:30:00.677Z,26.73
2022-12-18T00:32:30.351Z,24.47
2022-12-18T00:34:58.826Z,24.10
2022-12-18T00:37:27.112Z,28.07
2022-12-18T00:39:55.433Z,28.43
2022-12-18T00:42:41.369Z,24.73
2022-12-18T00:45:13.036Z,26.77
2022-12-18T00:47:43.024Z,24.57
2022-12-18T00:50:12.256Z,23.30
2022-12-18T00:52:41.836Z,25.40
2022-12-18T00:55:10.522Z,27.00
2022-12-18T00:57:38.883Z,26.37
2022-12-18T01:00:11.530Z,27.07
2022-12-18T01:02:40.413Z,28.87
2022-12-18T01:05:11.688Z,24.20
2022-12-18T01:07:40.279Z,27.10
2022-12-18T01:10:11.740Z,22.60
2022-12-18T01:12:40.604Z,29.07
2022-12-18T01:15:10.244Z,25.73
2022-12-18T01:17:38.678Z,28.03
2022-12-18T01:20:11.465Z,30.17
2022-12-18T01:22:39.771Z,25.47
2022-12-18T01:25:09.176Z,24.87
2022-12-18T01:27:37.478Z,26.73
2022-12-18T01:30:07.275Z,26.40
2022-12-18T01:32:35.860Z,25.23
2022-12-18T01:35:04.385Z,24.00
2022-12-18T01:37:34.307Z,25.30
2022-12-18T01:40:03.347Z,26.40
2022-12-18T01:42:31.802Z,24.40
2022-12-18T01:45:07.929Z,23.67
2022-12-18T01:47:41.078Z,24.10
2022-12-18T01:50:15.224Z,25.30
2022-12-18T01:52:50.900Z,24.43
2022-12-18T01:55:24.491Z,28.70
2022-12-18T01:57:56.948Z,25.13
2022-12-18T02:00:27.484Z,23.67
2022-12-18T02:02:56.407Z,24.73
2022-12-18T02:05:38.641Z,22.03
2022-12-18T02:08:17.185Z,27.00
2022-12-18T02:10:56.369Z,24.27
2022-12-18T02:13:38.857Z,24.27
2022-12-18T02:16:15.992Z,22.77
2022-12-18T02:18:49.790Z,26.90
2022-12-18T02:21:30.499Z,26.47
2022-12-18T02:24:19.982Z,26.90
2022-12-18T02:26:53.080Z,24.93
2022-12-18T02:29:28.478Z,23.80
2022-12-18T02:32:00.591Z,26.93
2022-12-18T02:34:33.653Z,30.57
2022-12-18T02:37:06.751Z,24.20
2022-12-18T02:39:37.650Z,23.67
2022-12-18T02:42:09.088Z,25.40
2022-12-18T02:44:44.501Z,27.40
2022-12-18T02:47:14.546Z,26.03
2022-12-18T02:49:55.765Z,27.63
2022-12-18T02:52:33.726Z,20.93
2022-12-18T02:55:18.015Z,24.97
2022-12-18T02:57:55.170Z,22.57
2022-12-18T03:00:30.767Z,22.47
2022-12-18T03:03:07.623Z,23.63
2022-12-18T03:05:40.832Z,28.00
2022-12-18T03:08:14.604Z,30.33
2022-12-18T03:10:48.074Z,24.67
2022-12-18T03:13:24.157Z,27.43
2022-12-18T03:15:57.058Z,27.13
2022-12-18T03:18:31.916Z,26.37
2022-12-18T03:21:05.881Z,24.00
2022-12-18T03:23:41.750Z,25.37
2022-12-18T03:26:15.281Z,25.00
2022-12-18T03:28:53.372Z,23.37
2022-12-18T03:31:25.049Z,23.67
2022-12-18T03:33:57.392Z,30.43
2022-12-18T03:36:26.906Z,22.27
2022-12-18T03:38:55.434Z,22.20
2022-12-18T03:41:32.113Z,24.00
2022-12-18T03:44:08.887Z,22.47
2022-12-18T03:46:49.499Z,25.10
2022-12-18T03:49:26.120Z,21.43
2022-12-18T03:52:00.136Z,23.20
2022-12-18T03:54:30.256Z,23.37
2022-12-18T03:57:05.854Z,20.70
2022-12-18T03:59:37.597Z,24.33
2022-12-18T04:02:09.158Z,23.37
2022-12-18T04:04:39.477Z,22.37
2022-12-18T04:07:09.032Z,21.80
2022-12-18T04:09:38.761Z,22.33
2022-12-18T04:12:07.423Z,26.30
2022-12-18T04:14:37.472Z,21.37
2022-12-18T04:17:06.079Z,23.47
2022-12-18T04:19:34.452Z,24.13
2022-12-18T04:22:02.709Z,20.27
2022-12-18T04:24:31.068Z,23.47
2022-12-18T04:26:59.381Z,23.43
2022-12-18T04:29:27.694Z,20.97
2022-12-18T04:31:57.375Z,21.40
2022-12-18T04:34:25.744Z,22.10
2022-12-18T04:36:54.124Z,22.27
2022-12-18T04:39:22.505Z,23.57
2022-12-18T04:41:50.864Z,21.07
2022-12-18T04:44:19.815Z,23.53
2022-12-18T04:46:48.169Z,18.57
2022-12-18T04:49:17.902Z,21.57
2022-12-18T04:51:46.196Z,20.17
2022-12-18T04:54:14.521Z,22.70
2022-12-18T04:56:42.893Z,22.73
2022-12-18T04:59:11.338Z,19.97
2022-12-18T05:01:39.919Z,18.27
2022-12-18T05:04:08.451Z,21.77
2022-12-18T05:06:38.326Z,17.80
2022-12-18T05:09:06.723Z,18.33
2022-12-18T05:11:35.011Z,20.93
2022-12-18T05:14:03.401Z,21.63
2022-12-18T05:16:31.815Z,20.77
2022-12-18T05:19:00.155Z,22.53
2022-12-18T05:21:28.538Z,23.67
2022-12-18T05:23:58.170Z,20.00
2022-12-18T05:26:26.524Z,24.00
2022-12-18T05:28:56.910Z,23.90
2022-12-18T05:31:25.606Z,22.70
2022-12-18T05:33:54.069Z,19.70
2022-12-18T05:36:22.465Z,22.43
2022-12-18T05:38:51.210Z,23.03
2022-12-18T05:41:20.913Z,24.53
2022-12-18T05:43:49.415Z,24.77
2022-12-18T05:46:19.644Z,22.87
2022-12-18T05:48:49.206Z,25.43
2022-12-18T05:51:20.545Z,26.23
2022-12-18T05:53:49.235Z,24.73
2022-12-18T05:56:22.244Z,25.80
2022-12-18T05:58:54.169Z,26.33
2022-12-18T06:01:26.451Z,29.63
2022-12-18T06:03:55.086Z,31.67
2022-12-18T06:06:26.789Z,29.27
2022-12-18T06:08:56.398Z,28.27
2022-12-18T06:11:28.625Z,27.60
2022-12-18T06:13:59.548Z,34.93
2022-12-18T06:16:30.365Z,28.90
2022-12-18T06:18:59.725Z,28.93
2022-12-18T06:21:28.974Z,31.67
2022-12-18T06:23:57.758Z,36.73
2022-12-18T06:26:28.601Z,33.10
2022-12-18T06:28:57.268Z,30.97
2022-12-18T06:31:26.034Z,34.00
2022-12-18T06:33:54.459Z,35.23
2022-12-18T06:36:23.285Z,31.40
2022-12-18T06:38:51.822Z,39.75
2022-12-18T06:41:22.370Z,39.60
2022-12-18T06:43:56.796Z,37.50
2022-12-18T06:46:28.050Z,34.57
2022-12-18T06:48:56.455Z,37.50
2022-12-18T06:51:27.323Z,37.15
2022-12-18T06:53:55.987Z,33.73
2022-12-18T06:56:24.690Z,31.67
2022-12-18T06:58:54.587Z,40.70
2022-12-18T07:01:23.700Z,40.47
2022-12-18T07:03:55.844Z,33.63
2022-12-18T07:06:26.942Z,35.07
2022-12-18T07:08:57.138Z,33.47
2022-12-18T07:11:25.793Z,32.30
2022-12-18T07:13:55.976Z,36.57
2022-12-18T07:16:25.927Z,38.80
2022-12-18T07:18:54.983Z,32.40
2022-12-18T07:21:24.678Z,32.60
2022-12-18T07:23:53.341Z,36.80
2022-12-18T07:26:23.854Z,33.13
2022-12-18T07:28:52.439Z,38.77
2022-12-18T07:31:23.902Z,34.67
2022-12-18T07:33:53.614Z,37.13
2022-12-18T07:36:25.517Z,39.93
2022-12-18T07:38:54.536Z,30.60
2022-12-18T07:41:23.458Z,38.93
2022-12-18T07:43:52.337Z,31.77
2022-12-18T07:46:22.414Z,33.23
2022-12-18T07:48:50.902Z,40.70
2022-12-18T07:51:20.743Z,34.60
2022-12-18T07:53:52.160Z,31.47
2022-12-18T07:56:27.736Z,38.47
2022-12-18T07:58:57.316Z,38.47
2022-12-18T08:01:27.598Z,38.63
2022-12-18T08:03:56.285Z,31.03
2022-12-18T08:06:24.962Z,36.40
2022-12-18T08:08:54.878Z,35.07
2022-12-18T08:11:24.788Z,34.73
2022-12-18T08:13:53.329Z,33.67
2022-12-18T08:16:23.889Z,35.63
2022-12-18T08:18:54.842Z,34.23
2022-12-18T08:21:26.301Z,34.63
2022-12-18T08:23:56.857Z,33.07
2022-12-18T08:26:26.157Z,35.93
2022-12-18T08:28:56.944Z,28.83
2022-12-18T08:31:26.581Z,29.93
2022-12-18T08:33:57.073Z,34.07
2022-12-18T08:36:27.468Z,31.10
2022-12-18T08:38:56.221Z,28.33
2022-12-18T08:41:25.321Z,28.67
2022-12-18T08:44:11.567Z,31.13
2022-12-18T08:46:42.558Z,31.23
2022-12-18T08:49:13.587Z,28.87
2022-12-18T08:51:42.802Z,29.00
2022-12-18T08:54:14.684Z,25.77
2022-12-18T08:56:43.013Z,32.03
2022-12-18T08:59:17.549Z,33.07
2022-12-18T09:01:48.744Z,30.90
2022-12-18T09:04:19.635Z,33.07
2022-12-18T09:06:47.938Z,28.20
2022-12-18T09:09:16.270Z,30.33
2022-12-18T09:11:44.674Z,33.43
2022-12-18T09:14:14.488Z,33.23
2022-12-18T09:16:42.948Z,29.03
2022-12-18T09:19:12.079Z,30.40
2022-12-18T09:21:46.289Z,28.67
2022-12-18T09:24:17.459Z,32.03
2022-12-18T09:26:47.386Z,30.57
2022-12-18T09:29:16.916Z,32.43
2022-12-18T09:31:47.496Z,27.77
2022-12-18T09:34:15.782Z,31.33
2022-12-18T09:36:47.596Z,33.87
2022-12-18T09:39:16.324Z,34.63
2022-12-18T09:41:51.051Z,32.97
2022-12-18T09:44:28.256Z,34.53
2022-12-18T09:47:08.133Z,31.87
2022-12-18T09:49:44.632Z,41.07
2022-12-18T09:52:21.603Z,33.77
2022-12-18T09:54:56.643Z,38.33
2022-12-18T09:57:26.678Z,39.27
2022-12-18T10:00:01.226Z,38.00
2022-12-18T10:02:33.507Z,39.73
2022-12-18T10:05:10.067Z,36.80
2022-12-18T10:07:52.345Z,33.13
2022-12-18T10:10:39.654Z,39.13
2022-12-18T10:13:21.892Z,39.67
2022-12-18T10:16:11.199Z,43.77
2022-12-18T10:19:02.461Z,37.53
2022-12-18T10:21:41.748Z,42.20
2022-12-18T10:24:22.863Z,48.67
2022-12-18T10:26:51.139Z,38.53
2022-12-18T10:29:19.621Z,35.20
2022-12-18T10:31:47.999Z,40.53
2022-12-18T10:34:16.736Z,39.27
2022-12-18T10:36:45.185Z,38.00
2022-12-18T10:39:25.971Z,38.37
2022-12-18T10:42:11.025Z,36.27
2022-12-18T10:44:39.733Z,38.77
2022-12-18T10:47:17.406Z,42.43
2022-12-18T10:49:51.943Z,40.40
2022-12-18T10:52:23.746Z,38.77
2022-12-18T10:54:59.219Z,43.23
2022-12-18T10:57:38.039Z,43.17
2022-12-18T11:00:30.466Z,43.37
2022-12-18T11:02:59.884Z,43.93
2022-12-18T11:05:32.422Z,45.90
2022-12-18T11:08:02.916Z,41.07
2022-12-18T11:10:35.643Z,47.97
2022-12-18T11:13:22.819Z,38.30
2022-12-18T11:15:51.710Z,43.33
2022-12-18T11:18:27.277Z,44.90
2022-12-18T11:20:59.646Z,41.23
2022-12-18T11:23:29.313Z,43.10
2022-12-18T11:26:02.778Z,39.57
2022-12-18T11:28:43.313Z,45.20
2022-12-18T11:31:28.610Z,45.40
2022-12-18T11:34:28.658Z,45.27
2022-12-18T11:37:00.181Z,46.07
2022-12-18T11:39:36.223Z,45.80
2022-12-18T11:42:14.626Z,45.27
2022-12-18T11:44:50.558Z,42.77
2022-12-18T11:47:30.727Z,43.63
2022-12-18T11:50:03.758Z,46.17
2022-12-18T11:52:40.253Z,41.90
2022-12-18T11:55:16.311Z,41.77
2022-12-18T11:57:57.521Z,44.53
2022-12-18T12:00:26.956Z,46.00
2022-12-18T12:03:42.045Z,43.17
2022-12-18T12:06:17.252Z,42.97
2022-12-18T12:09:07.080Z,42.43
2022-12-18T12:11:52.271Z,41.43
2022-12-18T12:14:44.955Z,41.37
2022-12-18T12:17:24.361Z,39.40
2022-12-18T12:20:05.198Z,39.47
2022-12-18T12:22:45.545Z,47.13
2022-12-18T12:25:35.447Z,41.57
2022-12-18T12:28:21.939Z,40.73
2022-12-18T12:31:04.756Z,43.30
2022-12-18T12:33:45.438Z,42.43
2022-12-18T12:36:25.577Z,37.73
2022-12-18T12:38:59.762Z,39.40
2022-12-18T12:41:51.165Z,41.43
2022-12-18T12:44:26.356Z,42.97
2022-12-18T12:47:03.469Z,43.97
2022-12-18T12:49:40.426Z,41.10
2022-12-18T12:52:18.733Z,42.70
2022-12-18T12:54:49.314Z,41.60
2022-12-18T12:57:25.048Z,47.10
2022-12-18T13:00:05.178Z,41.27
2022-12-18T13:02:48.995Z,39.63
2022-12-18T13:05:26.702Z,44.77
2022-12-18T13:08:00.325Z,44.87
2022-12-18T13:10:36.187Z,40.67
2022-12-18T13:13:09.265Z,43.63
2022-12-18T13:15:46.146Z,40.73
2022-12-18T13:18:21.545Z,41.33
2022-12-18T13:20:56.494Z,38.73
2022-12-18T13:23:37.333Z,36.03
2022-12-18T13:26:35.714Z,40.00
2022-12-18T13:29:07.278Z,48.17
2022-12-18T13:32:23.056Z,42.27
2022-12-18T13:35:42.243Z,41.27
2022-12-18T13:38:24.891Z,39.50
2022-12-18T13:40:58.963Z,40.37
2022-12-18T13:43:43.912Z,40.33
2022-12-18T13:46:25.824Z,43.70
2022-12-18T13:49:00.456Z,39.40
2022-12-18T13:51:35.197Z,41.97
2022-12-18T13:54:15.907Z,45.73
2022-12-18T13:56:48.081Z,42.83
2022-12-18T13:59:24.796Z,43.80
2022-12-18T14:01:57.260Z,43.20
2022-12-18T14:04:29.210Z,42.20
2022-12-18T14:07:13.903Z,40.07
2022-12-18T14:09:47.567Z,41.13
2022-12-18T14:12:38.293Z,41.63
2022-12-18T14:15:17.273Z,49.03
2022-12-18T14:17:45.984Z,44.87
2022-12-18T14:20:17.369Z,44.20
2022-12-18T14:22:48.815Z,43.13
2022-12-18T14:25:23.178Z,44.13
2022-12-18T14:28:05.404Z,43.23
2022-12-18T14:30:37.824Z,41.00
2022-12-18T14:33:11.012Z,48.43
2022-12-18T14:35:43.037Z,41.07
2022-12-18T14:38:27.272Z,37.33
2022-12-18T14:41:00.029Z,47.63
2022-12-18T14:43:30.654Z,44.00
2022-12-18T14:46:07.805Z,43.03
2022-12-18T14:48:42.177Z,39.30
2022-12-18T14:51:20.640Z,40.87
2022-12-18T14:53:55.951Z,40.17
2022-12-18T14:56:28.262Z,44.60
2022-12-18T14:58:59.081Z,44.67
2022-12-18T15:01:32.148Z,41.33
2022-12-18T15:04:02.574Z,40.60
2022-12-18T15:06:37.273Z,45.60
2022-12-18T15:09:24.216Z,52.57
2022-12-18T15:11:58.969Z,48.53
2022-12-18T15:14:37.071Z,41.70
2022-12-18T15:17:08.823Z,44.23
2022-12-18T15:19:42.826Z,42.27
2022-12-18T15:22:30.509Z,45.37
2022-12-18T15:25:04.051Z,43.67
2022-12-18T15:27:36.675Z,35.37
2022-12-18T15:30:23.780Z,45.30
2022-12-18T15:32:54.131Z,40.00
2022-12-18T15:35:25.654Z,44.10
2022-12-18T15:37:55.146Z,39.83
2022-12-18T15:40:26.378Z,38.97
2022-12-18T15:43:14.963Z,42.93
2022-12-18T15:45:43.363Z,45.57
2022-12-18T15:48:22.418Z,36.37
2022-12-18T15:50:52.635Z,42.97
2022-12-18T15:53:21.838Z,37.37
2022-12-18T15:56:09.618Z,41.77
2022-12-18T15:58:39.255Z,36.30
2022-12-18T16:01:09.878Z,43.57
2022-12-18T16:03:39.040Z,43.87
2022-12-18T16:06:08.660Z,38.60
2022-12-18T16:08:37.196Z,47.80
2022-12-18T16:11:19.102Z,42.00
2022-12-18T16:13:48.599Z,42.97
2022-12-18T16:16:17.433Z,42.90
2022-12-18T16:18:45.906Z,37.43
2022-12-18T16:21:14.503Z,30.77
2022-12-18T16:23:43.153Z,42.73
2022-12-18T16:26:13.207Z,31.67
2022-12-18T16:28:48.251Z,37.80
2022-12-18T16:31:17.218Z,38.90
2022-12-18T16:33:45.589Z,41.47
2022-12-18T16:36:14.277Z,36.27
2022-12-18T16:38:43.114Z,36.63
2022-12-18T16:41:33.423Z,33.77
2022-12-18T16:44:02.319Z,38.93
2022-12-18T16:46:31.432Z,31.83
2022-12-18T16:49:00.867Z,33.35
2022-12-18T16:51:30.092Z,34.83
2022-12-18T16:53:58.899Z,32.13
2022-12-18T16:56:29.513Z,31.23
2022-12-18T16:59:00.390Z,31.60
2022-12-18T17:01:31.241Z,33.00
2022-12-18T17:04:02.410Z,36.93
2022-12-18T17:06:34.014Z,32.40
2022-12-18T17:09:05.495Z,33.93
2022-12-18T17:11:37.012Z,33.57
2022-12-18T17:14:09.467Z,33.77
2022-12-18T17:16:37.946Z,36.50
2022-12-18T17:19:13.737Z,42.37
2022-12-18T17:21:45.916Z,33.80
2022-12-18T17:24:14.516Z,35.03
2022-12-18T17:26:44.626Z,32.80
2022-12-18T17:29:17.349Z,29.33
2022-12-18T17:31:48.520Z,36.63
2022-12-18T17:34:18.317Z,33.27
2022-12-18T17:36:46.809Z,32.97
2022-12-18T17:39:21.547Z,34.33
2022-12-18T17:41:55.046Z,38.10
2022-12-18T17:44:24.119Z,31.53
2022-12-18T17:46:53.396Z,36.50
2022-12-18T17:49:22.319Z,38.07
2022-12-18T17:51:51.618Z,38.00
2022-12-18T17:54:20.200Z,34.13
2022-12-18T17:56:50.463Z,36.33
2022-12-18T17:59:18.757Z,33.10
2022-12-18T18:01:47.385Z,30.93
2022-12-18T18:04:16.678Z,30.30
2022-12-18T18:06:45.100Z,30.73
2022-12-18T18:09:16.587Z,32.60
2022-12-18T18:12:03.359Z,32.20
2022-12-18T18:14:33.645Z,37.50
2022-12-18T18:17:04.719Z,34.37
2022-12-18T18:19:35.892Z,40.27
2022-12-18T18:22:04.456Z,35.97
2022-12-18T18:24:35.365Z,34.03
2022-12-18T18:27:03.745Z,38.13
2022-12-18T18:29:33.800Z,32.33
2022-12-18T18:32:02.406Z,32.17
2022-12-18T18:34:33.030Z,32.33
2022-12-18T18:37:01.533Z,33.63
2022-12-18T18:39:30.202Z,35.03
2022-12-18T18:41:59.534Z,32.70
2022-12-18T18:44:28.066Z,36.03
2022-12-18T18:46:59.657Z,36.63
2022-12-18T18:49:28.760Z,36.97
2022-12-18T18:51:59.273Z,37.27
2022-12-18T18:54:31.589Z,37.90
2022-12-18T18:59:49.639Z,38.43
2022-12-18T19:02:21.701Z,38.50
2022-12-18T19:04:50.396Z,34.60
2022-12-18T19:07:29.582Z,37.23
2022-12-18T19:10:03.476Z,38.57
2022-12-18T19:12:50.329Z,43.33
2022-12-18T19:15:18.703Z,38.97
2022-12-18T19:17:48.542Z,34.57
2022-12-18T19:20:17.859Z,36.83
2022-12-18T19:22:55.262Z,36.47
2022-12-18T19:25:40.292Z,35.50
2022-12-18T19:28:21.262Z,34.00
2022-12-18T19:30:56.338Z,38.60
2022-12-18T19:33:42.840Z,36.87
2022-12-18T19:36:16.002Z,34.53
2022-12-18T19:38:45.592Z,33.60
2022-12-18T19:41:15.384Z,37.77
2022-12-18T19:43:45.147Z,36.53
2022-12-18T19:46:16.630Z,31.97
2022-12-18T19:48:48.045Z,32.33
2022-12-18T19:51:20.079Z,33.87
2022-12-18T19:53:52.412Z,35.83
2022-12-18T19:56:27.961Z,31.70
2022-12-18T19:58:56.789Z,35.37
2022-12-18T20:01:28.176Z,33.27
2022-12-18T20:03:59.637Z,31.10
2022-12-18T20:06:33.977Z,34.40
2022-12-18T20:09:06.072Z,31.83
2022-12-18T20:11:39.667Z,33.13
2022-12-18T20:14:11.458Z,30.23
2022-12-18T20:16:40.177Z,33.40
2022-12-18T20:19:13.383Z,31.37
2022-12-18T20:21:42.792Z,31.37
2022-12-18T20:24:11.331Z,29.53
2022-12-18T20:26:40.608Z,28.77
2022-12-18T20:29:09.211Z,31.10
2022-12-18T20:31:37.769Z,27.67
2022-12-18T20:34:09.971Z,27.57
2022-12-18T20:36:41.095Z,29.97
2022-12-18T20:39:12.220Z,27.47
2022-12-18T20:41:43.045Z,31.67
2022-12-18T20:44:23.663Z,24.20
2022-12-18T20:46:54.956Z,28.00
2022-12-18T20:49:28.773Z,30.00
2022-12-18T20:51:59.557Z,26.83
2022-12-18T20:54:29.123Z,32.27
2022-12-18T20:56:58.390Z,22.63
2022-12-18T20:59:26.886Z,29.07
2022-12-18T21:01:56.058Z,27.40
2022-12-18T21:04:27.179Z,29.70
2022-12-18T21:07:02.121Z,28.50
2022-12-18T21:09:37.793Z,31.23
2022-12-18T21:12:30.165Z,30.10
2022-12-18T21:15:03.128Z,34.73
2022-12-18T21:17:31.559Z,34.57
2022-12-18T21:20:17.584Z,33.37
2022-12-18T21:22:46.826Z,29.53
2022-12-18T21:25:15.490Z,32.27
2022-12-18T21:27:44.021Z,30.67
2022-12-18T21:30:13.625Z,26.90
2022-12-18T21:32:42.527Z,30.03
2022-12-18T21:35:11.394Z,26.87
2022-12-18T21:37:41.225Z,35.70
2022-12-18T21:40:11.418Z,30.37
2022-12-18T21:42:57.389Z,33.43
2022-12-18T21:45:26.247Z,29.27
2022-12-18T21:47:54.718Z,29.03
2022-12-18T21:50:23.465Z,32.90
2022-12-18T21:52:53.233Z,26.60
2022-12-18T21:55:21.636Z,28.93
2022-12-18T21:57:50.355Z,29.50
2022-12-18T22:00:19.843Z,28.60
2022-12-18T22:03:15.567Z,33.07
2022-12-18T22:05:37.593Z,28.93
2022-12-18T22:08:07.885Z,30.73
2022-12-18T22:10:39.412Z,33.33
2022-12-18T22:13:09.299Z,30.93
2022-12-18T22:15:37.824Z,32.07
2022-12-18T22:18:06.263Z,26.33
2022-12-18T22:20:34.722Z,31.77
2022-12-18T22:23:05.648Z,31.37
2022-12-18T22:25:37.268Z,31.33
2022-12-18T22:28:25.611Z,33.47
2022-12-18T22:30:54.877Z,32.83
2022-12-18T22:33:29.102Z,27.90
2022-12-18T22:35:57.476Z,28.67
2022-12-18T22:38:27.489Z,33.73
2022-12-18T22:40:57.752Z,28.80
2022-12-18T22:43:26.193Z,34.03
2022-12-18T22:45:55.471Z,29.63
2022-12-18T22:48:24.591Z,27.43
2022-12-18T22:50:53.090Z,32.03
2022-12-18T22:53:26.783Z,33.10
2022-12-18T22:56:03.432Z,35.13
2022-12-18T22:58:31.764Z,30.20
2022-12-18T23:01:01.500Z,31.60
2022-12-18T23:03:30.300Z,31.07
2022-12-18T23:06:05.473Z,31.13
2022-12-18T23:08:34.463Z,30.37
2022-12-18T23:11:06.817Z,33.03
2022-12-18T23:13:36.203Z,30.37
2022-12-18T23:16:07.823Z,34.80
2022-12-18T23:18:37.173Z,28.13
2022-12-18T23:21:07.347Z,27.43
2022-12-18T23:23:37.672Z,25.70
2022-12-18T23:26:10.759Z,29.47
2022-12-18T23:28:40.346Z,22.00
2022-12-18T23:31:11.759Z,27.63
2022-12-18T23:33:42.818Z,23.77
2022-12-18T23:36:13.627Z,22.50
2022-12-18T23:38:42.594Z,23.17
2022-12-18T23:41:15.986Z,23.90
2022-12-18T23:43:44.631Z,22.63
2022-12-18T23:46:21.275Z,18.90
2022-12-18T23:48:50.165Z,20.60
2022-12-18T23:51:23.411Z,20.60
2022-12-18T23:53:52.098Z,19.50
2022-12-18T23:56:22.403Z,21.77
2022-12-18T23:58:52.665Z,21.63
